Terminal Aerodrome Forecast
Issued by NWS

Home | Current Version | Previous Version | Text Only | Print | Product List | Glossary On
Versions: 1 2 3 4 5 6 7 8 9 10 11 12 13 14 15
592
FTUS41 KPBZ 231141
TAFHLG
TAF
KHLG 231141Z 2312/2412 21008KT 6SM -SHRA BR OVC009
     FM231400 22006KT 5SM -SHRA OVC015
     FM231700 23012G20KT 5SM SHRA VCTS OVC020CB
     FM240000 23008KT 3SM SHRA BR OVC008
     FM240400 26004KT P6SM VCSH OVC006=

USA.gov is the U.S. government's official web portal to all federal, state and local government web resources and services.